sensor_id;sensor_type;location;lat;lon;timestamp;pressure;altitude;pressure_sealevel;temperature;humidity
45789;BME280;31492;54.856;26.318;2023-03-14T00:03:41;1005.9;;;6;80
45789;BME280;31492;54.856;26.318;2023-03-14T00:08:46;1005.8;;;6;80.1
45789;BME280;31492;54.856;26.318;2023-03-14T00:13:28;1005.8;;;6;80.2
45789;BME280;31492;54.856;26.318;2023-03-14T00:18:40;1005.8;;;6;80.4
45789;BME280;31492;54.856;26.318;2023-03-14T00:23:29;1006;;;6.1;80.2
45789;BME280;31492;54.856;26.318;2023-03-14T00:28:42;1006;;;6.1;80.2
45789;BME280;31492;54.856;26.318;2023-03-14T00:33:51;1006;;;6.1;80
45789;BME280;31492;54.856;26.318;2023-03-14T00:38:32;1006;;;6.2;80
45789;BME280;31492;54.856;26.318;2023-03-14T00:43:38;1006;;;6.1;80.2
45789;BME280;31492;54.856;26.318;2023-03-14T00:48:50;1006;;;6.1;80.3
45789;BME280;31492;54.856;26.318;2023-03-14T00:53:40;1006;;;6.2;80.4
45789;BME280;31492;54.856;26.318;2023-03-14T00:58:39;1006;;;6.2;80.1
45789;BME280;31492;54.856;26.318;2023-03-14T01:03:28;1005.9;;;6.2;80.3
45789;BME280;31492;54.856;26.318;2023-03-14T01:08:41;1005.7;;;6.2;80.4
45789;BME280;31492;54.856;26.318;2023-03-14T01:13:59;1005.6;;;6.2;80.7
45789;BME280;31492;54.856;26.318;2023-03-14T01:18:28;1005.4;;;6.2;80.7
45789;BME280;31492;54.856;26.318;2023-03-14T01:23:34;1005.3;;;6.2;80.7
45789;BME280;31492;54.856;26.318;2023-03-14T01:28:28;1005.3;;;6.3;80.8
45789;BME280;31492;54.856;26.318;2023-03-14T01:33:28;1005.2;;;6.3;80.5
45789;BME280;31492;54.856;26.318;2023-03-14T01:38:44;1005.3;;;6.3;80.4
45789;BME280;31492;54.856;26.318;2023-03-14T01:43:40;1005.2;;;6.4;80.7
45789;BME280;31492;54.856;26.318;2023-03-14T01:48:31;1005.1;;;6.4;81
45789;BME280;31492;54.856;26.318;2023-03-14T01:53:53;1005.2;;;6.4;80.8
45789;BME280;31492;54.856;26.318;2023-03-14T01:58:41;1005.4;;;6.4;80.6
45789;BME280;31492;54.856;26.318;2023-03-14T02:03:43;1005.5;;;6.4;80.7
45789;BME280;31492;54.856;26.318;2023-03-14T02:08:40;1005.6;;;6.5;80.4
45789;BME280;31492;54.856;26.318;2023-03-14T02:13:28;1005.5;;;6.5;80.5
45789;BME280;31492;54.856;26.318;2023-03-14T02:18:32;1005.4;;;6.4;80.1
45789;BME280;31492;54.856;26.318;2023-03-14T02:23:30;1005.5;;;6.5;80.3
45789;BME280;31492;54.856;26.318;2023-03-14T02:28:40;1005.4;;;6.5;80.2
45789;BME280;31492;54.856;26.318;2023-03-14T02:33:58;1005.4;;;6.5;80.1
45789;BME280;31492;54.856;26.318;2023-03-14T02:38:29;1005.4;;;6.5;80.4
45789;BME280;31492;54.856;26.318;2023-03-14T02:44:06;1005.5;;;6.5;80.3
45789;BME280;31492;54.856;26.318;2023-03-14T02:48:33;1005.5;;;6.5;80.3
45789;BME280;31492;54.856;26.318;2023-03-14T02:53:46;1005.4;;;6.5;80.5
45789;BME280;31492;54.856;26.318;2023-03-14T02:58:29;1005.3;;;6.4;80.8
45789;BME280;31492;54.856;26.318;2023-03-14T03:03:28;1005.3;;;6.5;80.7
45789;BME280;31492;54.856;26.318;2023-03-14T03:08:28;1005.4;;;6.4;80.5
45789;BME280;31492;54.856;26.318;2023-03-14T03:13:41;1005.4;;;6.4;80.5
45789;BME280;31492;54.856;26.318;2023-03-14T03:18:44;1005.3;;;6.4;80.6
45789;BME280;31492;54.856;26.318;2023-03-14T03:23:29;1005.3;;;6.5;80.9
45789;BME280;31492;54.856;26.318;2023-03-14T03:28:45;1005.3;;;6.5;80.7
45789;BME280;31492;54.856;26.318;2023-03-14T03:33:28;1005.2;;;6.4;80.9
45789;BME280;31492;54.856;26.318;2023-03-14T03:38:52;1005.1;;;6.4;80.5
45789;BME280;31492;54.856;26.318;2023-03-14T03:43:52;1005;;;6.4;80.7
45789;BME280;31492;54.856;26.318;2023-03-14T03:48:44;1005;;;6.5;80.6
45789;BME280;31492;54.856;26.318;2023-03-14T03:53:29;1004.9;;;6.5;80.5
45789;BME280;31492;54.856;26.318;2023-03-14T03:58:29;1004.6;;;6.5;80.6
45789;BME280;31492;54.856;26.318;2023-03-14T04:03:38;1004.6;;;6.5;80
45789;BME280;31492;54.856;26.318;2023-03-14T04:08:29;1004.8;;;6.5;80
45789;BME280;31492;54.856;26.318;2023-03-14T04:13:33;1005.1;;;6.5;79.9
45789;BME280;31492;54.856;26.318;2023-03-14T04:18:29;1005.2;;;6.5;79.9
45789;BME280;31492;54.856;26.318;2023-03-14T04:23:45;1005.2;;;6.5;79.9
45789;BME280;31492;54.856;26.318;2023-03-14T04:28:58;1005.1;;;6.5;79.8
45789;BME280;31492;54.856;26.318;2023-03-14T04:33:41;1005.1;;;6.4;79.7
45789;BME280;31492;54.856;26.318;2023-03-14T04:38:41;1005;;;6.4;79.8
45789;BME280;31492;54.856;26.318;2023-03-14T04:43:29;1004.9;;;6.4;79.9
45789;BME280;31492;54.856;26.318;2023-03-14T04:48:29;1004.6;;;6.3;79.7
45789;BME280;31492;54.856;26.318;2023-03-14T04:53:29;1004.6;;;6.2;79.9
45789;BME280;31492;54.856;26.318;2023-03-14T04:58:29;1004.6;;;6.2;79.5
45789;BME280;31492;54.856;26.318;2023-03-14T05:03:32;1004.6;;;6.3;79.3
45789;BME280;31492;54.856;26.318;2023-03-14T05:08:41;1004.8;;;6.3;78.8
45789;BME280;31492;54.856;26.318;2023-03-14T05:13:41;1005;;;6.3;78.6
45789;BME280;31492;54.856;26.318;2023-03-14T05:18:29;1005;;;6.3;78.4
45789;BME280;31492;54.856;26.318;2023-03-14T05:23:29;1005;;;6.3;78.2
45789;BME280;31492;54.856;26.318;2023-03-14T05:28:29;1005;;;6.3;77.9
45789;BME280;31492;54.856;26.318;2023-03-14T05:33:29;1005;;;6.3;77.7
45789;BME280;31492;54.856;26.318;2023-03-14T05:38:41;1005;;;6.3;77.7
45789;BME280;31492;54.856;26.318;2023-03-14T05:43:43;1005;;;6.3;77.5
45789;BME280;31492;54.856;26.318;2023-03-14T05:48:29;1005.1;;;6.2;77.8
45789;BME280;31492;54.856;26.318;2023-03-14T05:53:41;1005.1;;;6.2;77.8
45789;BME280;31492;54.856;26.318;2023-03-14T05:58:53;1005.3;;;6.2;77.5
45789;BME280;31492;54.856;26.318;2023-03-14T06:03:39;1005.3;;;6.1;77.6
45789;BME280;31492;54.856;26.318;2023-03-14T06:08:43;1005.4;;;6.1;77.6
45789;BME280;31492;54.856;26.318;2023-03-14T06:13:45;1005.4;;;6.1;77.5
45789;BME280;31492;54.856;26.318;2023-03-14T06:18:41;1005.3;;;6.1;77.3
45789;BME280;31492;54.856;26.318;2023-03-14T06:23:33;1005.3;;;6.2;77.1
45789;BME280;31492;54.856;26.318;2023-03-14T06:28:41;1005.4;;;6.2;76.8
45789;BME280;31492;54.856;26.318;2023-03-14T06:33:29;1005.4;;;6.2;76.5
45789;BME280;31492;54.856;26.318;2023-03-14T06:38:39;1005.4;;;6.2;76.4
45789;BME280;31492;54.856;26.318;2023-03-14T06:43:29;1005.3;;;6.2;76.1
45789;BME280;31492;54.856;26.318;2023-03-14T06:48:29;1005.4;;;6.3;75.8
45789;BME280;31492;54.856;26.318;2023-03-14T06:53:29;1005.5;;;6.3;75.7
45789;BME280;31492;54.856;26.318;2023-03-14T06:58:45;1005.4;;;6.3;75.5
45789;BME280;31492;54.856;26.318;2023-03-14T07:03:29;1005.4;;;6.4;75.4
45789;BME280;31492;54.856;26.318;2023-03-14T07:08:29;1005.5;;;6.6;74.9
45789;BME280;31492;54.856;26.318;2023-03-14T07:13:45;1005.4;;;6.7;74.6
45789;BME280;31492;54.856;26.318;2023-03-14T07:18:45;1005.4;;;6.7;74.3
45789;BME280;31492;54.856;26.318;2023-03-14T07:23:29;1005.3;;;6.7;74.1
45789;BME280;31492;54.856;26.318;2023-03-14T07:28:45;1005.2;;;6.8;73.9
45789;BME280;31492;54.856;26.318;2023-03-14T07:33:33;1005;;;6.8;73.7
45789;BME280;31492;54.856;26.318;2023-03-14T07:38:29;1004.8;;;6.9;73.5
45789;BME280;31492;54.856;26.318;2023-03-14T07:43:29;1004.8;;;7;73.3
45789;BME280;31492;54.856;26.318;2023-03-14T07:48:29;1004.8;;;7.1;72.9
45789;BME280;31492;54.856;26.318;2023-03-14T07:53:41;1004.7;;;7.2;72.5
45789;BME280;31492;54.856;26.318;2023-03-14T07:58:29;1004.7;;;7.2;72.2
45789;BME280;31492;54.856;26.318;2023-03-14T08:03:47;1004.7;;;7.6;71.3
45789;BME280;31492;54.856;26.318;2023-03-14T08:08:29;1004.7;;;8.3;68.9
45789;BME280;31492;54.856;26.318;2023-03-14T08:13:53;1004.8;;;8.5;68.5
45789;BME280;31492;54.856;26.318;2023-03-14T08:18:29;1004.7;;;8.3;68.2
45789;BME280;31492;54.856;26.318;2023-03-14T08:23:53;1004.7;;;8.2;68.4
45789;BME280;31492;54.856;26.318;2023-03-14T08:28:29;1004.7;;;8.2;68.2
45789;BME280;31492;54.856;26.318;2023-03-14T08:33:29;1004.8;;;8.5;67.4
45789;BME280;31492;54.856;26.318;2023-03-14T08:38:41;1004.9;;;8.9;66.5
45789;BME280;31492;54.856;26.318;2023-03-14T08:43:57;1004.8;;;9.3;64.6
45789;BME280;31492;54.856;26.318;2023-03-14T08:48:39;1004.6;;;9.6;65.4
45789;BME280;31492;54.856;26.318;2023-03-14T08:53:29;1004.5;;;9.7;63.6
45789;BME280;31492;54.856;26.318;2023-03-14T08:58:29;1004.6;;;9.8;63.3
45789;BME280;31492;54.856;26.318;2023-03-14T09:03:53;1004.6;;;9.6;62.8
45789;BME280;31492;54.856;26.318;2023-03-14T09:08:41;1004.7;;;9.3;63.2
45789;BME280;31492;54.856;26.318;2023-03-14T09:13:33;1004.8;;;9;63.9
45789;BME280;31492;54.856;26.318;2023-03-14T09:18:41;1004.8;;;8.9;64.2
45789;BME280;31492;54.856;26.318;2023-03-14T09:23:29;1004.8;;;8.8;64.6
45789;BME280;31492;54.856;26.318;2023-03-14T09:28:29;1004.8;;;8.6;64.6
45789;BME280;31492;54.856;26.318;2023-03-14T09:33:29;1004.8;;;8.4;64.8
45789;BME280;31492;54.856;26.318;2023-03-14T09:38:29;1004.8;;;8.3;64.6
45789;BME280;31492;54.856;26.318;2023-03-14T09:43:29;1004.8;;;8.3;64.9
45789;BME280;31492;54.856;26.318;2023-03-14T09:48:29;1004.9;;;8.2;64.8
45789;BME280;31492;54.856;26.318;2023-03-14T09:53:41;1005.1;;;8.2;64.8
45789;BME280;31492;54.856;26.318;2023-03-14T09:58:41;1005.2;;;8.2;65.1
45789;BME280;31492;54.856;26.318;2023-03-14T10:03:41;1005.2;;;8.2;65.1
45789;BME280;31492;54.856;26.318;2023-03-14T10:08:55;1005.2;;;8.2;64.8
45789;BME280;31492;54.856;26.318;2023-03-14T10:13:49;1005.1;;;8.1;65.4
45789;BME280;31492;54.856;26.318;2023-03-14T10:18:45;1005.1;;;8.1;65
45789;BME280;31492;54.856;26.318;2023-03-14T10:23:43;1005.1;;;8.1;65.9
45789;BME280;31492;54.856;26.318;2023-03-14T10:28:29;1005.1;;;8.1;66.4
45789;BME280;31492;54.856;26.318;2023-03-14T10:33:29;1005.2;;;8.1;67.2
45789;BME280;31492;54.856;26.318;2023-03-14T10:38:29;1005.2;;;8.1;67.7
45789;BME280;31492;54.856;26.318;2023-03-14T10:43:30;1005.2;;;8.1;68
45789;BME280;31492;54.856;26.318;2023-03-14T10:48:41;1005.1;;;8.2;68.1
45789;BME280;31492;54.856;26.318;2023-03-14T10:53:34;1005;;;8.2;68.2
45789;BME280;31492;54.856;26.318;2023-03-14T10:58:56;1004.9;;;8.2;68.9
45789;BME280;31492;54.856;26.318;2023-03-14T11:03:54;1004.8;;;8.2;69
45789;BME280;31492;54.856;26.318;2023-03-14T11:08:31;1004.7;;;8.2;69.1
45789;BME280;31492;54.856;26.318;2023-03-14T11:13:30;1004.5;;;8.2;69.4
45789;BME280;31492;54.856;26.318;2023-03-14T11:18:58;1004.4;;;8.2;69.3
45789;BME280;31492;54.856;26.318;2023-03-14T11:23:30;1004.3;;;8.3;69.4
45789;BME280;31492;54.856;26.318;2023-03-14T11:28:41;1004.2;;;8.4;69.2
45789;BME280;31492;54.856;26.318;2023-03-14T11:33:44;1004.2;;;8.5;68.4
45789;BME280;31492;54.856;26.318;2023-03-14T11:38:59;1004.2;;;8.6;68
45789;BME280;31492;54.856;26.318;2023-03-14T11:43:41;1004.1;;;9;67.6
45789;BME280;31492;54.856;26.318;2023-03-14T11:48:45;1004.1;;;9.4;66.7
45789;BME280;31492;54.856;26.318;2023-03-14T11:53:45;1004.1;;;9.7;65.2
45789;BME280;31492;54.856;26.318;2023-03-14T11:58:55;1004.1;;;9.9;64.8
45789;BME280;31492;54.856;26.318;2023-03-14T12:03:31;1004;;;10.2;63.4
45789;BME280;31492;54.856;26.318;2023-03-14T12:08:43;1003.9;;;10.4;63
45789;BME280;31492;54.856;26.318;2023-03-14T12:13:41;1003.8;;;10.5;60.8
45789;BME280;31492;54.856;26.318;2023-03-14T12:18:41;1003.6;;;10.4;61.6
45789;BME280;31492;54.856;26.318;2023-03-14T12:23:34;1003.5;;;10.4;61.2
45789;BME280;31492;54.856;26.318;2023-03-14T12:28:42;1003.5;;;10.3;61.4
45789;BME280;31492;54.856;26.318;2023-03-14T12:33:30;1003.4;;;10.3;61.1
45789;BME280;31492;54.856;26.318;2023-03-14T12:38:31;1003.3;;;10.2;60.6
45789;BME280;31492;54.856;26.318;2023-03-14T12:43:41;1003.2;;;10.2;59.6
45789;BME280;31492;54.856;26.318;2023-03-14T12:48:39;1003;;;10.2;59.1
45789;BME280;31492;54.856;26.318;2023-03-14T12:53:41;1002.9;;;10.3;59.5
45789;BME280;31492;54.856;26.318;2023-03-14T12:58:30;1002.8;;;10.3;59.1
45789;BME280;31492;54.856;26.318;2023-03-14T13:03:40;1002.6;;;10.5;58.5
45789;BME280;31492;54.856;26.318;2023-03-14T13:08:41;1002.6;;;10.7;57.7
45789;BME280;31492;54.856;26.318;2023-03-14T13:13:29;1002.6;;;10.8;56.9
45789;BME280;31492;54.856;26.318;2023-03-14T13:18:41;1002.6;;;10.8;56.9
45789;BME280;31492;54.856;26.318;2023-03-14T13:23:41;1002.6;;;10.8;56.5
45789;BME280;31492;54.856;26.318;2023-03-14T13:28:33;1002.6;;;10.9;56.3
45789;BME280;31492;54.856;26.318;2023-03-14T13:33:39;1002.6;;;10.9;56
45789;BME280;31492;54.856;26.318;2023-03-14T13:38:41;1002.5;;;11;55.9
45789;BME280;31492;54.856;26.318;2023-03-14T13:43:45;1002.4;;;11.1;55.8
45789;BME280;31492;54.856;26.318;2023-03-14T13:48:29;1002.5;;;11.1;55.5
45789;BME280;31492;54.856;26.318;2023-03-14T13:53:42;1002.4;;;11.2;54.8
45789;BME280;31492;54.856;26.318;2023-03-14T13:58:30;1002.4;;;11.2;54.8
45789;BME280;31492;54.856;26.318;2023-03-14T14:03:31;1002.4;;;11.2;55.1
45789;BME280;31492;54.856;26.318;2023-03-14T14:08:29;1002.5;;;11.2;54.8
45789;BME280;31492;54.856;26.318;2023-03-14T14:13:59;1002.4;;;11.2;54.7
45789;BME280;31492;54.856;26.318;2023-03-14T14:18:29;1002.4;;;11.3;54
45789;BME280;31492;54.856;26.318;2023-03-14T14:23:29;1002.5;;;11.3;54.3
45789;BME280;31492;54.856;26.318;2023-03-14T14:28:30;1002.5;;;11.3;54.5
45789;BME280;31492;54.856;26.318;2023-03-14T14:33:29;1002.3;;;11.3;54.8
45789;BME280;31492;54.856;26.318;2023-03-14T14:38:33;1002.2;;;11.3;55.1
45789;BME280;31492;54.856;26.318;2023-03-14T14:43:39;1002.2;;;11.2;55.4
45789;BME280;31492;54.856;26.318;2023-03-14T14:48:55;1002.1;;;11.1;55.9
45789;BME280;31492;54.856;26.318;2023-03-14T14:53:30;1002.2;;;11;56.4
45789;BME280;31492;54.856;26.318;2023-03-14T14:58:39;1002.2;;;10.9;56.7
45789;BME280;31492;54.856;26.318;2023-03-14T15:03:41;1002.2;;;10.8;57.3
45789;BME280;31492;54.856;26.318;2023-03-14T15:08:33;1002.2;;;10.7;57.7
45789;BME280;31492;54.856;26.318;2023-03-14T15:13:41;1002.2;;;10.6;58.1
45789;BME280;31492;54.856;26.318;2023-03-14T15:18:41;1002.2;;;10.5;58.5
45789;BME280;31492;54.856;26.318;2023-03-14T15:23:33;1002.3;;;10.4;58.6
45789;BME280;31492;54.856;26.318;2023-03-14T15:28:29;1002.3;;;10.3;59
45789;BME280;31492;54.856;26.318;2023-03-14T15:33:45;1002.3;;;10.2;59.4
45789;BME280;31492;54.856;26.318;2023-03-14T15:38:39;1002.3;;;10.1;59.6
45789;BME280;31492;54.856;26.318;2023-03-14T15:43:43;1002.3;;;9.9;59.9
45789;BME280;31492;54.856;26.318;2023-03-14T15:48:29;1002.3;;;9.8;60.1
45789;BME280;31492;54.856;26.318;2023-03-14T15:53:33;1002.3;;;9.7;60.2
45789;BME280;31492;54.856;26.318;2023-03-14T15:58:43;1002.3;;;9.6;60.6
45789;BME280;31492;54.856;26.318;2023-03-14T16:03:29;1002.3;;;9.6;61
45789;BME280;31492;54.856;26.318;2023-03-14T16:08:29;1002.4;;;9.5;61.1
45789;BME280;31492;54.856;26.318;2023-03-14T16:13:47;1002.4;;;9.4;61.4
45789;BME280;31492;54.856;26.318;2023-03-14T16:18:30;1002.4;;;9.3;61.8
45789;BME280;31492;54.856;26.318;2023-03-14T16:23:29;1002.4;;;9.2;62
45789;BME280;31492;54.856;26.318;2023-03-14T16:28:29;1002.4;;;9.2;62.3
45789;BME280;31492;54.856;26.318;2023-03-14T16:33:33;1002.4;;;9.1;62.2
45789;BME280;31492;54.856;26.318;2023-03-14T16:38:55;1002.4;;;9;62.4
45789;BME280;31492;54.856;26.318;2023-03-14T16:43:41;1002.4;;;8.9;62.6
45789;BME280;31492;54.856;26.318;2023-03-14T16:48:41;1002.4;;;8.9;62.7
45789;BME280;31492;54.856;26.318;2023-03-14T16:53:35;1002.4;;;8.8;62.8
45789;BME280;31492;54.856;26.318;2023-03-14T16:58:29;1002.5;;;8.7;63
45789;BME280;31492;54.856;26.318;2023-03-14T17:03:29;1002.5;;;8.7;63.2
45789;BME280;31492;54.856;26.318;2023-03-14T17:08:43;1002.4;;;8.6;63.2
45789;BME280;31492;54.856;26.318;2023-03-14T17:13:41;1002.4;;;8.6;63.4
45789;BME280;31492;54.856;26.318;2023-03-14T17:18:35;1002.5;;;8.5;63.3
45789;BME280;31492;54.856;26.318;2023-03-14T17:24:03;1002.5;;;8.5;63.5
45789;BME280;31492;54.856;26.318;2023-03-14T17:28:41;1002.4;;;8.4;63.6
45789;BME280;31492;54.856;26.318;2023-03-14T17:33:41;1002.4;;;8.3;63.7
45789;BME280;31492;54.856;26.318;2023-03-14T17:38:29;1002.4;;;8.3;63.5
45789;BME280;31492;54.856;26.318;2023-03-14T17:43:29;1002.3;;;8.3;63.3
45789;BME280;31492;54.856;26.318;2023-03-14T17:48:41;1002.3;;;8.4;62.9
45789;BME280;31492;54.856;26.318;2023-03-14T17:53:55;1002.2;;;8.5;62.7
45789;BME280;31492;54.856;26.318;2023-03-14T17:58:29;1002.2;;;8.5;62.7
45789;BME280;31492;54.856;26.318;2023-03-14T18:03:29;1002.2;;;8.6;62.6
45789;BME280;31492;54.856;26.318;2023-03-14T18:08:29;1002.2;;;8.7;62.4
45789;BME280;31492;54.856;26.318;2023-03-14T18:13:29;1002.2;;;8.7;62.3
45789;BME280;31492;54.856;26.318;2023-03-14T18:18:29;1002.2;;;8.7;62.4
45789;BME280;31492;54.856;26.318;2023-03-14T18:23:41;1002.2;;;8.7;62.4
45789;BME280;31492;54.856;26.318;2023-03-14T18:28:35;1002.2;;;8.7;62.3
45789;BME280;31492;54.856;26.318;2023-03-14T18:34:15;1002.2;;;8.7;62.4
45789;BME280;31492;54.856;26.318;2023-03-14T18:38:49;1002.2;;;8.6;62.3
45789;BME280;31492;54.856;26.318;2023-03-14T18:44:03;1002.2;;;8.7;61.9
45789;BME280;31492;54.856;26.318;2023-03-14T18:48:29;1002.2;;;8.7;61.8
45789;BME280;31492;54.856;26.318;2023-03-14T18:53:29;1002.2;;;8.7;61.7
45789;BME280;31492;54.856;26.318;2023-03-14T18:58:29;1002.2;;;8.8;61.4
45789;BME280;31492;54.856;26.318;2023-03-14T19:03:30;1002.2;;;8.9;61
45789;BME280;31492;54.856;26.318;2023-03-14T19:08:29;1002.2;;;9;61
45789;BME280;31492;54.856;26.318;2023-03-14T19:13:29;1002.1;;;9;61.1
45789;BME280;31492;54.856;26.318;2023-03-14T19:18:49;1002.2;;;9;60.9
45789;BME280;31492;54.856;26.318;2023-03-14T19:23:41;1002.2;;;9;60.9
45789;BME280;31492;54.856;26.318;2023-03-14T19:28:29;1002.3;;;9;61
45789;BME280;31492;54.856;26.318;2023-03-14T19:33:41;1002.5;;;9;61.2
45789;BME280;31492;54.856;26.318;2023-03-14T19:38:29;1002.7;;;8.8;61.4
45789;BME280;31492;54.856;26.318;2023-03-14T19:43:53;1002.8;;;8.8;61.6
45789;BME280;31492;54.856;26.318;2023-03-14T19:48:43;1002.8;;;8.7;61.8
45789;BME280;31492;54.856;26.318;2023-03-14T19:53:29;1002.8;;;8.6;62
45789;BME280;31492;54.856;26.318;2023-03-14T19:58:29;1002.9;;;8.6;61.8
45789;BME280;31492;54.856;26.318;2023-03-14T20:03:29;1002.9;;;8.7;61.5
45789;BME280;31492;54.856;26.318;2023-03-14T20:08:29;1002.9;;;8.8;61.6
45789;BME280;31492;54.856;26.318;2023-03-14T20:13:39;1003;;;8.8;61.6
45789;BME280;31492;54.856;26.318;2023-03-14T20:18:29;1003.1;;;8.8;61.5
45789;BME280;31492;54.856;26.318;2023-03-14T20:23:49;1003.1;;;8.8;61.7
45789;BME280;31492;54.856;26.318;2023-03-14T20:28:49;1003.2;;;8.8;61.8
45789;BME280;31492;54.856;26.318;2023-03-14T20:33:51;1003.3;;;8.8;61.9
45789;BME280;31492;54.856;26.318;2023-03-14T20:38:29;1003.3;;;8.8;61.9
45789;BME280;31492;54.856;26.318;2023-03-14T20:43:43;1003.3;;;8.8;62.1
45789;BME280;31492;54.856;26.318;2023-03-14T20:48:41;1003.3;;;8.7;62.1
45789;BME280;31492;54.856;26.318;2023-03-14T20:53:29;1003.3;;;8.7;62.3
45789;BME280;31492;54.856;26.318;2023-03-14T20:58:29;1003.3;;;8.7;62.5
45789;BME280;31492;54.856;26.318;2023-03-14T21:03:49;1003.3;;;8.6;62.5
45789;BME280;31492;54.856;26.318;2023-03-14T21:08:35;1003.3;;;8.6;62.9
45789;BME280;31492;54.856;26.318;2023-03-14T21:13:43;1003.2;;;8.5;63
45789;BME280;31492;54.856;26.318;2023-03-14T21:18:49;1003.1;;;8.4;63.1
45789;BME280;31492;54.856;26.318;2023-03-14T21:23:39;1003.1;;;8.4;63.2
45789;BME280;31492;54.856;26.318;2023-03-14T21:28:47;1003.1;;;8.3;63.5
45789;BME280;31492;54.856;26.318;2023-03-14T21:34:01;1003.1;;;8.3;63.8
45789;BME280;31492;54.856;26.318;2023-03-14T21:38:29;1003.2;;;8.2;64.1
45789;BME280;31492;54.856;26.318;2023-03-14T21:43:29;1003.2;;;8.2;64.4
45789;BME280;31492;54.856;26.318;2023-03-14T21:48:29;1003.3;;;8.1;64.7
45789;BME280;31492;54.856;26.318;2023-03-14T21:53:29;1003.3;;;8.2;64.7
45789;BME280;31492;54.856;26.318;2023-03-14T21:58:55;1003.3;;;8.2;64.8
45789;BME280;31492;54.856;26.318;2023-03-14T22:03:29;1003.3;;;8.2;65.2
45789;BME280;31492;54.856;26.318;2023-03-14T22:08:43;1003.3;;;8.2;65.4
45789;BME280;31492;54.856;26.318;2023-03-14T22:13:29;1003.4;;;8.2;65.4
45789;BME280;31492;54.856;26.318;2023-03-14T22:18:29;1003.4;;;8.2;65.3
45789;BME280;31492;54.856;26.318;2023-03-14T22:23:43;1003.5;;;8.2;65.1
45789;BME280;31492;54.856;26.318;2023-03-14T22:28:29;1003.5;;;8.3;64.8
45789;BME280;31492;54.856;26.318;2023-03-14T22:33:57;1003.6;;;8.3;64.9
45789;BME280;31492;54.856;26.318;2023-03-14T22:38:55;1003.6;;;8.4;65
45789;BME280;31492;54.856;26.318;2023-03-14T22:43:51;1003.6;;;8.4;65.9
45789;BME280;31492;54.856;26.318;2023-03-14T22:48:43;1003.6;;;8.4;66.8
45789;BME280;31492;54.856;26.318;2023-03-14T22:53:43;1003.6;;;8.4;67.5
45789;BME280;31492;54.856;26.318;2023-03-14T22:58:35;1003.7;;;8.4;68
45789;BME280;31492;54.856;26.318;2023-03-14T23:03:39;1003.8;;;8.3;68.5
45789;BME280;31492;54.856;26.318;2023-03-14T23:08:41;1003.8;;;8.2;68.6
45789;BME280;31492;54.856;26.318;2023-03-14T23:13:29;1003.9;;;8.2;68.6
45789;BME280;31492;54.856;26.318;2023-03-14T23:19:17;1003.9;;;8.2;68.4
45789;BME280;31492;54.856;26.318;2023-03-14T23:23:29;1003.9;;;8.2;68.3
45789;BME280;31492;54.856;26.318;2023-03-14T23:28:43;1003.9;;;8.3;68.3
45789;BME280;31492;54.856;26.318;2023-03-14T23:33:49;1003.9;;;8.3;68.3
45789;BME280;31492;54.856;26.318;2023-03-14T23:38:35;1004;;;8.3;68.2
45789;BME280;31492;54.856;26.318;2023-03-14T23:43:35;1004;;;8.3;68.2
45789;BME280;31492;54.856;26.318;2023-03-14T23:48:29;1004.1;;;8.3;68.2
45789;BME280;31492;54.856;26.318;2023-03-14T23:53:29;1004.1;;;8.4;68.2
45789;BME280;31492;54.856;26.318;2023-03-14T23:58:30;1004.1;;;8.4;68.2
